Time;durP1;ratioP1;P1;durP2;ratioP2;P2;SDS_P1;SDS_P2;PMS_P1;PMS_P2;Temp;Humidity;BMP_temperature;BMP_pressure;BME280_temperature;BME280_humidity;BME280_pressure;Samples;Min_cycle;Max_cycle;Signal;HPM_P1;HPM_P2
2022/10/25 00:02:17;;;;;;;11.13;5.70;;;;;;;13.47;100.00;100689.50;4899846;29;20491;-71
2022/10/25 00:04:47;;;;;;;10.53;4.87;;;;;;;13.45;100.00;100691.63;4914675;29;20450;-71
2022/10/25 00:07:18;;;;;;;6.00;5.00;;;;;;;13.32;100.00;100688.19;4899294;29;20408;-70
2022/10/25 00:09:47;;;;;;;7.63;4.67;;;;;;;13.37;100.00;100691.91;4885708;29;20465;-71
2022/10/25 00:12:15;;;;;;;11.67;5.47;;;;;;;13.40;100.00;100683.31;4898262;29;20421;-70
2022/10/25 00:14:44;;;;;;;6.10;4.47;;;;;;;13.40;100.00;100683.31;4901589;29;20453;-71
2022/10/25 00:17:14;;;;;;;7.37;4.20;;;;;;;13.46;100.00;100679.69;4917827;29;20460;-71
2022/10/25 00:19:43;;;;;;;4.77;3.37;;;;;;;13.60;100.00;100685.00;4911282;29;20433;-70
2022/10/25 00:22:13;;;;;;;8.63;3.87;;;;;;;13.46;100.00;100687.00;4906381;29;20465;-72
2022/10/25 00:24:43;;;;;;;6.23;3.63;;;;;;;13.55;100.00;100682.94;4910286;29;20718;-72
2022/10/25 00:27:12;;;;;;;9.60;4.40;;;;;;;13.54;100.00;100688.59;4900955;29;20757;-71
2022/10/25 00:29:41;;;;;;;6.50;3.90;;;;;;;13.71;100.00;100689.66;4898260;29;20422;-72
2022/10/25 00:32:10;;;;;;;11.93;3.93;;;;;;;13.56;100.00;100694.63;4918534;29;20509;-70
2022/10/25 00:34:41;;;;;;;12.80;4.33;;;;;;;13.37;100.00;100689.19;4901189;29;20409;-71
2022/10/25 00:37:10;;;;;;;10.37;5.57;;;;;;;13.38;100.00;100690.84;4905976;29;20955;-72
2022/10/25 00:39:39;;;;;;;8.80;4.60;;;;;;;13.30;100.00;100688.44;4902102;29;20449;-71
2022/10/25 00:42:13;;;;;;;8.10;3.33;;;;;;;13.45;100.00;100688.91;4890880;29;20454;-73
2022/10/25 00:44:50;;;;;;;6.83;3.97;;;;;;;13.45;100.00;100686.19;4901083;29;20977;-72
2022/10/25 00:47:34;;;;;;;11.67;4.93;;;;;;;13.51;100.00;100686.34;4899285;29;20421;-72
2022/10/25 00:50:09;;;;;;;5.73;3.57;;;;;;;13.52;100.00;100682.53;4899166;29;20405;-71
2022/10/25 00:52:40;;;;;;;5.17;4.17;;;;;;;13.51;100.00;100686.34;4903964;29;20453;-71
2022/10/25 00:55:13;;;;;;;13.30;3.33;;;;;;;13.43;100.00;100688.28;4901009;29;20454;-70
2022/10/25 00:57:48;;;;;;;5.80;3.87;;;;;;;13.31;100.00;100692.81;4903165;29;20805;-71
2022/10/25 01:00:18;;;;;;;11.27;3.87;;;;;;;13.42;100.00;100694.78;4918618;29;20445;-72
2022/10/25 01:02:47;;;;;;;4.33;3.40;;;;;;;13.36;100.00;100695.69;4908284;29;20477;-71
2022/10/25 01:05:18;;;;;;;12.20;3.80;;;;;;;13.40;100.00;100690.66;4917380;29;20790;-72
2022/10/25 01:07:47;;;;;;;5.73;4.10;;;;;;;13.56;100.00;100697.34;4917651;29;20421;-72
2022/10/25 01:10:16;;;;;;;5.17;4.17;;;;;;;13.75;100.00;100694.41;4915073;29;20434;-72
2022/10/25 01:12:46;;;;;;;7.57;4.40;;;;;;;13.92;100.00;100689.19;4915172;29;20445;-71
2022/10/25 01:15:22;;;;;;;4.67;3.60;;;;;;;13.88;100.00;100683.38;4912231;29;20452;-72
2022/10/25 01:18:01;;;;;;;4.83;3.70;;;;;;;14.05;99.78;100688.16;4913974;29;20457;-71
2022/10/25 01:21:03;;;;;;;6.93;4.50;;;;;;;14.05;98.95;100689.00;4889375;29;20465;-70
2022/10/25 01:23:56;;;;;;;7.93;3.93;;;;;;;14.18;97.80;100685.28;4898012;29;20824;-70
2022/10/25 01:26:52;;;;;;;3.93;3.53;;;;;;;14.17;97.63;100687.16;4902486;29;20528;-70
2022/10/25 01:29:59;;;;;;;6.20;3.83;;;;;;;14.21;97.00;100682.09;4893888;29;20428;-70
2022/10/25 01:32:35;;;;;;;7.77;3.20;;;;;;;14.14;96.95;100681.34;4894122;29;20958;-71
2022/10/25 01:35:13;;;;;;;7.97;4.77;;;;;;;14.40;96.14;100680.16;4899818;29;20958;-71
2022/10/25 01:37:53;;;;;;;8.30;3.80;;;;;;;14.30;95.74;100689.69;4898629;29;20472;-71
2022/10/25 01:40:27;;;;;;;5.77;4.97;;;;;;;14.45;95.48;100699.34;4911587;29;20411;-71
2022/10/25 01:43:02;;;;;;;4.33;3.63;;;;;;;14.40;95.54;100691.88;4901083;29;20417;-70
2022/10/25 01:45:37;;;;;;;9.97;3.53;;;;;;;14.35;96.59;100692.56;4894026;29;20432;-71
2022/10/25 01:48:14;;;;;;;5.27;3.87;;;;;;;14.66;95.29;100696.13;4897568;29;20447;-70
2022/10/25 01:50:46;;;;;;;6.63;3.00;;;;;;;14.54;95.61;100692.50;4901574;29;20447;-70
2022/10/25 01:53:15;;;;;;;8.17;3.73;;;;;;;14.42;96.55;100694.41;4895234;29;20431;-70
2022/10/25 01:55:51;;;;;;;7.43;3.87;;;;;;;14.40;96.13;100685.63;4886893;29;20470;-70
2022/10/25 01:58:35;;;;;;;8.00;4.13;;;;;;;14.32;97.26;100684.03;4894561;29;20520;-70
2022/10/25 02:01:15;;;;;;;9.13;3.87;;;;;;;14.33;97.21;100681.06;4891699;29;20439;-70
2022/10/25 02:03:55;;;;;;;6.80;3.70;;;;;;;14.28;97.54;100689.09;4900074;29;20441;-70
2022/10/25 02:06:34;;;;;;;10.80;4.40;;;;;;;14.28;97.70;100689.09;4894742;29;20488;-70
2022/10/25 02:09:11;;;;;;;5.80;3.47;;;;;;;14.34;97.60;100690.88;4898280;29;20461;-70
2022/10/25 02:11:41;;;;;;;15.37;4.73;;;;;;;14.34;97.51;100692.78;4893082;29;20405;-73
2022/10/25 02:14:20;;;;;;;7.83;5.30;;;;;;;14.47;96.88;100683.63;4877331;29;20417;-71
2022/10/25 02:16:56;;;;;;;9.57;4.10;;;;;;;14.38;95.58;100683.13;4897408;29;20461;-70
2022/10/25 02:19:31;;;;;;;7.23;4.20;;;;;;;14.47;95.69;100686.34;4887935;29;20491;-70
2022/10/25 02:22:02;;;;;;;7.53;3.53;;;;;;;14.43;95.29;100691.41;4899951;29;20895;-70
2022/10/25 02:24:34;;;;;;;7.20;3.97;;;;;;;14.39;95.58;100689.38;4895693;29;20461;-70
2022/10/25 02:27:05;;;;;;;5.57;3.67;;;;;;;14.55;94.33;100683.28;4921511;29;20470;-70
2022/10/25 02:29:37;;;;;;;7.40;3.00;;;;;;;14.54;94.21;100684.34;4889669;29;20538;-70
2022/10/25 02:32:06;;;;;;;3.07;2.70;;;;;;;14.53;93.10;100686.25;4896880;29;20433;-70
2022/10/25 02:34:36;;;;;;;3.80;3.50;;;;;;;14.55;93.66;100694.19;4898028;29;20443;-71
2022/10/25 02:37:05;;;;;;;5.60;3.67;;;;;;;14.51;93.62;100696.56;4906072;29;20477;-72
2022/10/25 02:39:35;;;;;;;6.13;3.47;;;;;;;14.53;93.20;100691.69;4895780;29;20449;-71
2022/10/25 02:42:04;;;;;;;6.10;3.50;;;;;;;14.57;92.75;100694.78;4902053;29;20438;-70
2022/10/25 02:44:33;;;;;;;5.60;2.57;;;;;;;14.57;92.66;100698.31;4900655;29;20420;-71
2022/10/25 02:47:02;;;;;;;4.40;2.90;;;;;;;14.55;92.45;100694.19;4898174;29;20900;-71
2022/10/25 02:49:31;;;;;;;6.33;3.40;;;;;;;14.48;93.43;100694.28;4892657;29;20438;-70
2022/10/25 02:52:02;;;;;;;6.90;2.33;;;;;;;14.43;92.77;100691.41;4911142;29;20474;-71
2022/10/25 02:54:30;;;;;;;5.80;3.20;;;;;;;14.44;93.48;100703.13;4881827;29;20920;-71
2022/10/25 02:56:59;;;;;;;5.97;3.10;;;;;;;14.37;93.64;100697.81;4903647;29;20520;-71
2022/10/25 02:59:29;;;;;;;4.33;2.30;;;;;;;14.33;93.78;100697.38;4906715;29;20892;-71
2022/10/25 03:01:58;;;;;;;10.27;3.00;;;;;;;14.35;93.71;100700.72;4912958;29;20524;-72
2022/10/25 03:04:27;;;;;;;8.03;3.20;;;;;;;14.42;93.41;100703.38;4903208;29;20823;-72
2022/10/25 03:06:57;;;;;;;3.70;2.47;;;;;;;14.49;92.89;100711.44;4901503;29;20454;-72
2022/10/25 03:09:29;;;;;;;6.90;3.60;;;;;;;14.35;93.07;100716.22;4927409;29;20442;-71
2022/10/25 03:11:58;;;;;;;4.90;3.07;;;;;;;14.52;92.60;100711.81;4911678;29;20912;-70
2022/10/25 03:14:26;;;;;;;7.07;3.33;;;;;;;14.41;92.39;100709.91;4912271;29;20437;-72
2022/10/25 03:16:56;;;;;;;3.70;3.00;;;;;;;14.37;92.92;100716.03;4887805;29;20547;-70
2022/10/25 03:19:25;;;;;;;4.70;3.67;;;;;;;14.44;92.35;100716.75;4904126;29;20461;-71
2022/10/25 03:21:54;;;;;;;5.30;3.40;;;;;;;14.42;92.59;100708.00;4908543;29;20757;-71
2022/10/25 03:24:23;;;;;;;8.73;3.07;;;;;;;14.52;91.69;100716.44;4898319;29;20484;-70
2022/10/25 03:26:53;;;;;;;10.07;4.37;;;;;;;14.49;91.31;100722.34;4899819;29;20745;-71
2022/10/25 03:29:22;;;;;;;5.60;2.70;;;;;;;14.46;92.19;100723.63;4909851;29;20416;-72
2022/10/25 03:31:51;;;;;;;3.60;2.80;;;;;;;14.49;91.30;100716.88;4901686;29;20413;-71
2022/10/25 03:34:20;;;;;;;5.90;3.13;;;;;;;14.54;91.22;100723.31;4899522;29;20462;-71
2022/10/25 03:36:49;;;;;;;6.30;3.50;;;;;;;14.42;91.51;100724.34;4901107;29;20470;-70
2022/10/25 03:39:17;;;;;;;7.60;2.80;;;;;;;14.45;91.88;100721.13;4909453;29;20440;-72
2022/10/25 03:41:46;;;;;;;7.27;3.30;;;;;;;14.40;91.32;100726.44;4901052;29;20420;-71
2022/10/25 03:44:17;;;;;;;5.13;2.73;;;;;;;14.56;90.59;100733.97;4898403;29;20442;-71
2022/10/25 03:46:46;;;;;;;5.20;3.40;;;;;;;14.55;89.95;100738.59;4906966;29;20454;-71
2022/10/25 03:49:15;;;;;;;5.20;4.73;;;;;;;14.57;89.31;100736.44;4890793;29;20473;-72
2022/10/25 03:51:43;;;;;;;6.83;2.83;;;;;;;14.48;89.23;100732.38;4906354;29;20940;-70
2022/10/25 03:54:12;;;;;;;4.80;2.53;;;;;;;14.50;89.53;100738.44;4912388;29;20797;-70
2022/10/25 03:56:41;;;;;;;4.00;3.13;;;;;;;14.48;89.13;100735.09;4898593;29;20433;-71
2022/10/25 03:59:10;;;;;;;12.33;3.10;;;;;;;14.58;88.89;100742.72;4909639;29;20885;-70
2022/10/25 04:01:40;;;;;;;7.57;2.50;;;;;;;14.61;88.18;100747.72;4897571;29;20597;-71
2022/10/25 04:04:09;;;;;;;3.43;1.97;;;;;;;14.59;88.00;100750.66;4897733;29;20935;-73
2022/10/25 04:06:38;;;;;;;7.60;2.83;;;;;;;14.58;87.73;100748.16;4899415;29;20429;-69
2022/10/25 04:09:07;;;;;;;5.70;2.40;;;;;;;14.67;86.87;100747.59;4886844;29;20413;-71
2022/10/25 04:11:36;;;;;;;6.30;2.50;;;;;;;14.69;86.78;100756.38;4881934;29;20453;-69
2022/10/25 04:14:05;;;;;;;3.90;2.50;;;;;;;14.59;86.69;100756.13;4898875;29;20409;-69
2022/10/25 04:16:34;;;;;;;5.50;1.87;;;;;;;14.60;86.14;100751.50;4893769;29;20453;-70
2022/10/25 04:19:05;;;;;;;6.50;2.13;;;;;;;14.59;86.32;100755.28;4896084;29;20445;-69
2022/10/25 04:21:33;;;;;;;8.67;3.10;;;;;;;14.50;86.48;100757.50;4898578;29;20446;-71
2022/10/25 04:24:03;;;;;;;5.47;1.83;;;;;;;14.56;86.28;100755.75;4958947;23;20487;-69
2022/10/25 04:26:35;;;;;;;3.17;2.23;;;;;;;14.54;85.79;100752.41;4955646;28;20444;-68
2022/10/25 04:29:05;;;;;;;8.03;1.60;;;;;;;14.56;85.26;100758.47;4919264;29;20442;-69
2022/10/25 04:31:35;;;;;;;6.50;2.43;;;;;;;14.42;86.56;100757.00;4928476;29;20467;-68
2022/10/25 04:34:07;;;;;;;3.27;2.37;;;;;;;14.61;85.68;100758.63;4924800;29;20431;-69
2022/10/25 04:36:37;;;;;;;6.03;2.10;;;;;;;14.83;84.29;100757.00;4944166;29;20436;-68
2022/10/25 04:39:12;;;;;;;2.17;1.10;;;;;;;14.80;83.36;100760.22;4920706;29;20473;-68
2022/10/25 04:41:47;;;;;;;3.63;1.90;;;;;;;14.89;83.77;100747.91;4954486;28;20979;-69
2022/10/25 04:44:22;;;;;;;2.80;1.50;;;;;;;14.78;83.42;100756.88;4926293;29;20456;-68
2022/10/25 04:46:58;;;;;;;2.13;1.47;;;;;;;14.63;84.07;100761.91;4921319;29;20518;-70
2022/10/25 04:49:33;;;;;;;1.63;1.20;;;;;;;14.72;83.54;100760.53;4949969;28;20417;-68
2022/10/25 04:52:02;;;;;;;3.20;1.20;;;;;;;14.73;83.23;100756.75;4961257;28;20524;-69
2022/10/25 04:54:32;;;;;;;4.20;1.70;;;;;;;14.55;84.28;100754.09;4937325;29;20428;-69
2022/10/25 04:57:01;;;;;;;2.77;1.53;;;;;;;14.50;84.68;100756.69;4952978;28;20557;-68
2022/10/25 04:59:31;;;;;;;3.93;1.37;;;;;;;14.42;84.77;100754.28;4922375;29;20440;-69
2022/10/25 05:02:00;;;;;;;8.93;1.57;;;;;;;14.24;85.80;100753.22;4936115;29;20450;-68
2022/10/25 05:04:31;;;;;;;3.17;1.60;;;;;;;14.18;86.41;100750.59;4928436;29;20519;-68
2022/10/25 05:07:01;;;;;;;2.43;1.70;;;;;;;14.27;85.96;100752.78;4924762;29;20477;-69
2022/10/25 05:09:30;;;;;;;3.07;1.30;;;;;;;14.23;86.47;100759.72;4964098;28;20449;-68
2022/10/25 05:12:00;;;;;;;3.83;1.90;;;;;;;14.01;87.48;100758.53;4928924;29;20870;-67
2022/10/25 05:14:29;;;;;;;1.60;1.10;;;;;;;13.87;88.21;100762.47;4930098;29;20549;-69
2022/10/25 05:17:02;;;;;;;4.87;1.87;;;;;;;13.75;88.97;100767.00;4923008;29;20472;-68
2022/10/25 05:19:33;;;;;;;3.43;1.70;;;;;;;13.70;89.14;100764.16;4921302;29;20433;-70
2022/10/25 05:22:02;;;;;;;4.77;2.03;;;;;;;13.57;90.20;100753.38;4924107;29;20401;-70
2022/10/25 05:24:32;;;;;;;5.70;2.20;;;;;;;13.40;91.09;100762.16;4922235;29;20497;-68
2022/10/25 05:27:02;;;;;;;4.03;2.23;;;;;;;13.46;91.82;100763.09;4926255;29;20496;-68
2022/10/25 05:29:31;;;;;;;4.70;2.30;;;;;;;13.42;91.91;100765.44;4917428;29;20507;-68
2022/10/25 05:32:01;;;;;;;3.80;1.90;;;;;;;13.38;92.36;100758.81;4955782;28;20420;-69
2022/10/25 05:34:32;;;;;;;5.83;3.10;;;;;;;13.42;92.64;100772.78;4928633;29;20461;-69
2022/10/25 05:37:01;;;;;;;4.73;1.97;;;;;;;13.32;93.45;100776.00;4954137;28;20529;-68
2022/10/25 05:39:31;;;;;;;6.97;1.93;;;;;;;13.30;94.26;100772.69;4954766;28;20901;-69
2022/10/25 05:42:05;;;;;;;9.33;3.50;;;;;;;13.57;93.05;100775.97;4920484;29;20453;-68
2022/10/25 05:44:34;;;;;;;5.13;2.40;;;;;;;13.61;92.90;100784.50;4933243;29;20424;-69
2022/10/25 05:47:04;;;;;;;3.40;2.50;;;;;;;13.72;92.11;100778.34;4923805;29;20444;-68
2022/10/25 05:49:38;;;;;;;6.50;2.37;;;;;;;13.81;91.95;100777.81;4934217;28;20453;-68
2022/10/25 05:52:08;;;;;;;4.10;2.37;;;;;;;13.91;91.22;100789.00;4944788;29;20775;-68
2022/10/25 05:54:38;;;;;;;4.30;2.23;;;;;;;14.03;90.76;100799.97;4929443;29;20941;-68
2022/10/25 05:57:07;;;;;;;3.80;2.47;;;;;;;14.07;89.93;100795.72;4915634;29;20439;-72
2022/10/25 05:59:37;;;;;;;5.43;2.90;;;;;;;14.13;89.28;100802.16;4919411;29;20444;-68
2022/10/25 06:02:06;;;;;;;6.43;3.10;;;;;;;14.13;89.17;100799.44;4952438;28;20475;-68
2022/10/25 06:04:38;;;;;;;5.47;2.97;;;;;;;14.22;88.65;100804.34;4922289;29;20456;-69
2022/10/25 06:07:07;;;;;;;4.00;2.40;;;;;;;14.31;88.58;100808.41;4951358;29;20932;-68
2022/10/25 06:09:37;;;;;;;5.50;2.23;;;;;;;14.23;88.37;100805.97;4959202;28;20702;-69
2022/10/25 06:12:06;;;;;;;7.57;2.00;;;;;;;14.25;88.43;100814.75;4956349;28;20994;-69
2022/10/25 06:14:37;;;;;;;5.50;2.73;;;;;;;14.35;88.08;100817.78;4925451;29;20559;-68
2022/10/25 06:17:07;;;;;;;4.40;2.37;;;;;;;14.41;87.94;100823.41;4921091;29;20488;-69
2022/10/25 06:19:37;;;;;;;6.03;1.77;;;;;;;14.34;87.93;100824.28;4923029;29;20467;-69
2022/10/25 06:22:07;;;;;;;5.57;1.73;;;;;;;14.38;87.90;100823.88;4920354;29;20465;-69
2022/10/25 06:24:37;;;;;;;5.00;1.97;;;;;;;14.50;87.30;100831.03;4919642;29;20487;-70
2022/10/25 06:27:06;;;;;;;2.90;1.53;;;;;;;14.55;87.02;100835.78;4925724;29;20806;-69
2022/10/25 06:29:36;;;;;;;3.30;1.70;;;;;;;14.67;86.60;100833.94;4925816;29;20483;-68
2022/10/25 06:32:05;;;;;;;1.70;1.33;;;;;;;14.67;86.45;100840.22;4930259;29;20489;-68
2022/10/25 06:34:37;;;;;;;5.53;2.90;;;;;;;14.62;86.34;100837.34;4934209;29;20423;-68
2022/10/25 06:37:06;;;;;;;4.30;1.80;;;;;;;14.59;86.92;100845.16;4930125;29;20744;-73
2022/10/25 06:39:36;;;;;;;4.60;1.70;;;;;;;14.61;86.65;100854.75;4922024;29;20992;-68
2022/10/25 06:42:06;;;;;;;2.67;1.50;;;;;;;14.64;86.61;100850.75;4926899;29;20973;-69
2022/10/25 06:44:35;;;;;;;3.70;2.70;;;;;;;14.67;86.30;100847.53;4917030;29;20437;-67
2022/10/25 06:47:04;;;;;;;5.10;2.97;;;;;;;14.64;86.89;100853.47;4927336;29;20466;-72
2022/10/25 06:49:48;;;;;;;6.67;2.60;;;;;;;14.72;86.59;100856.69;4930166;29;20416;-69
2022/10/25 06:52:17;;;;;;;4.17;1.97;;;;;;;14.82;85.36;100853.41;4938370;29;20432;-68
2022/10/25 06:54:47;;;;;;;7.63;1.63;;;;;;;14.87;85.05;100864.44;4920086;29;20461;-67
2022/10/25 06:57:17;;;;;;;8.73;1.90;;;;;;;14.83;85.62;100860.53;4921003;29;20513;-68
2022/10/25 06:59:47;;;;;;;3.07;1.77;;;;;;;14.94;84.62;100867.94;4921831;29;20655;-68
2022/10/25 07:02:16;;;;;;;3.00;1.70;;;;;;;14.91;85.16;100865.66;4926063;29;20781;-68
2022/10/25 07:04:47;;;;;;;5.23;1.40;;;;;;;14.94;84.52;100875.28;4955337;28;20919;-68
2022/10/25 07:07:17;;;;;;;2.53;1.57;;;;;;;14.86;85.01;100876.44;4950677;28;20543;-69
2022/10/25 07:09:47;;;;;;;3.33;1.37;;;;;;;14.89;85.38;100886.84;4924905;29;20452;-69
2022/10/25 07:12:16;;;;;;;4.30;1.60;;;;;;;14.94;84.28;100883.44;4927127;29;20415;-68
2022/10/25 07:14:46;;;;;;;7.97;1.57;;;;;;;14.81;85.09;100886.34;4924127;29;20446;-68
2022/10/25 07:17:16;;;;;;;8.00;2.10;;;;;;;14.90;85.24;100884.97;4932573;29;20424;-68
2022/10/25 07:19:47;;;;;;;3.90;1.13;;;;;;;15.14;84.17;100884.00;4934118;29;20443;-69
2022/10/25 07:22:16;;;;;;;4.70;1.73;;;;;;;15.35;83.16;100894.34;4931181;29;20528;-69
2022/10/25 07:24:46;;;;;;;5.73;1.27;;;;;;;15.27;83.42;100891.13;4941282;28;20440;-69
2022/10/25 07:27:15;;;;;;;8.80;1.93;;;;;;;15.27;84.20;100893.84;4929886;29;20445;-69
2022/10/25 07:29:45;;;;;;;10.47;2.17;;;;;;;15.36;84.75;100889.72;4926391;29;20425;-68
2022/10/25 07:32:14;;;;;;;3.20;1.27;;;;;;;15.39;85.61;100908.38;4927862;29;20442;-68
2022/10/25 07:34:44;;;;;;;5.80;1.93;;;;;;;15.37;86.66;100899.56;4922888;29;20429;-68
2022/10/25 07:37:15;;;;;;;5.53;2.87;;;;;;;15.42;86.59;100899.72;4922807;29;20419;-70
2022/10/25 07:39:45;;;;;;;3.73;2.37;;;;;;;15.43;87.25;100906.84;4923839;29;20553;-69
2022/10/25 07:42:15;;;;;;;3.60;1.47;;;;;;;15.33;87.06;100909.28;4955893;28;20430;-68
2022/10/25 07:44:44;;;;;;;3.67;1.60;;;;;;;15.22;89.18;100905.47;4929416;29;20475;-68
2022/10/25 07:47:13;;;;;;;3.73;1.70;;;;;;;15.22;89.21;100902.75;4958004;28;20487;-69
2022/10/25 07:49:43;;;;;;;3.63;1.93;;;;;;;15.23;89.50;100907.13;4923474;29;20532;-68
2022/10/25 07:52:13;;;;;;;4.00;1.40;;;;;;;15.24;91.28;100911.53;4922688;29;20449;-68
2022/10/25 07:54:43;;;;;;;10.30;2.00;;;;;;;15.03;91.07;100904.69;4941852;29;20455;-69
2022/10/25 07:57:12;;;;;;;6.00;3.27;;;;;;;15.14;90.89;100911.25;4922255;29;20414;-68
2022/10/25 07:59:41;;;;;;;5.30;2.07;;;;;;;15.07;90.26;100911.34;4940096;29;20822;-67
2022/10/25 08:02:11;;;;;;;4.47;1.97;;;;;;;15.02;91.98;100908.47;4920634;29;20452;-68
2022/10/25 08:04:42;;;;;;;3.67;2.00;;;;;;;15.10;92.39;100910.84;4918339;29;20441;-68
2022/10/25 08:07:11;;;;;;;8.10;2.47;;;;;;;14.88;93.16;100906.16;4956643;28;20532;-69
2022/10/25 08:09:42;;;;;;;5.33;2.33;;;;;;;14.72;94.50;100913.88;4934378;29;20487;-69
2022/10/25 08:12:11;;;;;;;3.27;2.13;;;;;;;14.71;94.92;100908.69;4918816;29;20451;-68
2022/10/25 08:14:40;;;;;;;10.00;2.97;;;;;;;14.74;95.57;100910.94;4927444;29;20478;-69
2022/10/25 08:17:13;;;;;;;2.80;2.17;;;;;;;14.77;96.45;100911.31;4928673;29;20864;-68
2022/10/25 08:19:42;;;;;;;6.40;2.80;;;;;;;14.93;96.01;100917.19;4920213;29;20773;-68
2022/10/25 08:22:18;;;;;;;3.77;1.97;;;;;;;15.04;94.66;100933.59;4957496;28;20430;-69
2022/10/25 08:24:49;;;;;;;3.47;1.73;;;;;;;15.01;93.49;100917.69;4948781;29;20483;-68
2022/10/25 08:27:18;;;;;;;4.23;2.80;;;;;;;15.03;94.17;100929.22;4949212;28;20432;-68
2022/10/25 08:29:47;;;;;;;4.30;1.80;;;;;;;14.86;94.31;100925.47;4921921;29;20552;-67
2022/10/25 08:32:17;;;;;;;3.17;1.77;;;;;;;14.84;94.69;100919.41;4951021;28;20416;-70
2022/10/25 08:34:46;;;;;;;4.83;1.83;;;;;;;14.78;95.73;100918.44;4937777;29;20435;-68
2022/10/25 08:37:15;;;;;;;3.80;2.07;;;;;;;14.89;94.98;100924.16;4951080;28;20430;-69
2022/10/25 08:39:45;;;;;;;3.80;2.17;;;;;;;14.96;95.27;100924.94;4945787;28;20444;-69
2022/10/25 08:42:24;;;;;;;5.53;1.90;;;;;;;14.89;94.88;100924.16;4921092;29;20446;-68
2022/10/25 08:45:00;;;;;;;5.30;2.70;;;;;;;14.92;95.43;100924.53;4918328;29;20737;-69
2022/10/25 08:47:35;;;;;;;8.30;1.60;;;;;;;14.98;93.62;100926.34;4916237;29;20459;-68
2022/10/25 08:50:13;;;;;;;4.60;1.87;;;;;;;15.15;94.36;100932.00;4944410;28;20432;-68
2022/10/25 08:52:45;;;;;;;8.63;2.23;;;;;;;15.25;92.12;100929.53;4925824;29;20536;-69
2022/10/25 08:55:19;;;;;;;6.53;2.30;;;;;;;15.33;91.79;100925.66;4957474;28;20484;-68
2022/10/25 08:57:53;;;;;;;2.87;2.17;;;;;;;15.44;90.89;100927.59;4933552;29;20905;-69
2022/10/25 09:00:24;;;;;;;4.20;1.97;;;;;;;15.80;89.96;100932.91;4923891;29;20487;-69
2022/10/25 09:02:55;;;;;;;2.73;1.73;;;;;;;16.05;89.14;100936.25;4917835;29;20434;-67
2022/10/25 09:05:37;;;;;;;7.80;3.00;;;;;;;16.16;87.21;100933.75;4924796;29;20487;-69
2022/10/25 09:08:27;;;;;;;5.57;2.57;;;;;;;16.12;86.77;100930.63;4955174;28;20445;-68
2022/10/25 09:11:03;;;;;;;5.67;3.27;;;;;;;16.15;86.83;100929.34;4909054;29;20451;-69
2022/10/25 09:13:43;;;;;;;10.67;4.03;;;;;;;16.34;86.72;100930.88;4915905;29;20449;-67
2022/10/25 09:16:17;;;;;;;3.20;1.67;;;;;;;16.14;85.29;100944.06;4918024;29;20500;-68
2022/10/25 09:18:50;;;;;;;9.13;2.90;;;;;;;16.16;83.97;100941.94;4924296;29;20412;-68
2022/10/25 09:21:25;;;;;;;5.13;1.90;;;;;;;15.97;87.20;100947.53;4919975;29;20465;-69
2022/10/25 09:23:59;;;;;;;5.70;2.27;;;;;;;16.15;87.29;100943.84;4918942;29;20476;-68
2022/10/25 09:26:40;;;;;;;8.50;2.17;;;;;;;16.26;84.28;100947.63;4934689;29;20484;-69
2022/10/25 09:29:28;;;;;;;6.07;2.10;;;;;;;16.36;83.18;100948.69;4932971;29;20506;-69
2022/10/25 09:32:00;;;;;;;4.57;1.87;;;;;;;16.37;83.11;100955.81;4933106;29;20420;-69
2022/10/25 09:34:33;;;;;;;7.37;3.20;;;;;;;16.53;82.58;100970.63;4916183;29;20430;-68
2022/10/25 09:37:14;;;;;;;3.00;1.73;;;;;;;16.50;81.29;100968.41;4948338;28;20473;-69
2022/10/25 09:39:47;;;;;;;4.43;2.00;;;;;;;16.47;81.14;100972.44;4933629;29;20436;-68
2022/10/25 09:42:21;;;;;;;2.43;1.63;;;;;;;16.66;80.44;100964.09;4920011;29;20931;-68
2022/10/25 09:44:57;;;;;;;2.63;1.57;;;;;;;16.73;80.18;100973.03;4920865;29;20443;-68
2022/10/25 09:47:39;;;;;;;3.97;1.80;;;;;;;16.90;79.00;100966.56;4917330;29;20456;-70
2022/10/25 09:50:19;;;;;;;5.77;2.30;;;;;;;16.74;78.72;100966.50;4921856;29;20528;-69
2022/10/25 09:52:59;;;;;;;6.57;2.20;;;;;;;16.80;78.87;100971.81;4917911;29;20520;-69
2022/10/25 09:55:34;;;;;;;5.90;2.40;;;;;;;16.71;78.27;100978.72;4926089;29;20543;-70
2022/10/25 09:58:04;;;;;;;9.40;2.73;;;;;;;16.60;79.14;100967.81;4921508;29;20438;-69
2022/10/25 10:00:39;;;;;;;3.73;2.50;;;;;;;16.62;79.56;100974.69;4921097;29;20498;-69
2022/10/25 10:03:11;;;;;;;5.80;2.70;;;;;;;16.54;79.95;100975.03;4924591;29;20496;-69
2022/10/25 10:05:46;;;;;;;4.03;2.60;;;;;;;16.51;79.00;100979.06;4923070;29;20948;-69
2022/10/25 10:08:16;;;;;;;6.63;2.57;;;;;;;16.56;78.46;100977.50;4921914;29;20453;-68
2022/10/25 10:10:48;;;;;;;4.57;2.20;;;;;;;16.63;79.57;100981.00;4953095;28;20428;-69
2022/10/25 10:13:27;;;;;;;6.50;2.70;;;;;;;16.70;78.48;100982.50;4954854;28;20468;-69
2022/10/25 10:16:02;;;;;;;2.27;1.80;;;;;;;16.89;78.51;100985.94;4943138;28;20431;-69
2022/10/25 10:18:34;;;;;;;5.57;3.23;;;;;;;16.80;77.97;100982.75;4915945;29;20555;-69
2022/10/25 10:21:13;;;;;;;3.20;2.70;;;;;;;16.65;78.16;100984.34;4914241;29;20443;-68
2022/10/25 10:23:50;;;;;;;3.57;2.67;;;;;;;16.66;77.72;100985.97;4939946;23;20921;-72
2022/10/25 10:26:28;;;;;;;9.20;3.83;;;;;;;16.51;78.53;100989.16;4924800;29;20843;-71
2022/10/25 10:29:09;;;;;;;2.57;2.07;;;;;;;16.53;77.70;100987.03;4930647;29;20790;-72
2022/10/25 10:31:50;;;;;;;5.83;2.93;;;;;;;16.57;77.93;100990.09;4925804;29;20423;-71
2022/10/25 10:34:27;;;;;;;2.97;2.53;;;;;;;16.52;78.55;100990.81;4924471;29;20411;-70
2022/10/25 10:37:05;;;;;;;7.20;2.93;;;;;;;16.61;77.32;100994.06;4926402;29;20497;-71
2022/10/25 10:39:34;;;;;;;4.30;2.57;;;;;;;16.53;76.95;100987.88;4929529;29;20989;-72
2022/10/25 10:42:16;;;;;;;3.77;3.00;;;;;;;16.82;76.93;100991.53;4926215;29;20458;-72
2022/10/25 10:45:01;;;;;;;8.03;4.33;;;;;;;17.01;75.41;100992.19;4925748;29;20467;-72
2022/10/25 10:47:36;;;;;;;7.87;3.53;;;;;;;16.87;75.69;100997.13;4934351;29;20442;-70
2022/10/25 10:50:13;;;;;;;5.37;2.37;;;;;;;16.91;75.12;100992.81;4914245;29;20419;-70
2022/10/25 10:52:44;;;;;;;3.50;2.53;;;;;;;16.76;74.67;100992.50;4921074;29;20411;-71
2022/10/25 10:55:19;;;;;;;4.60;2.60;;;;;;;16.77;75.87;100993.31;4931009;29;20445;-71
2022/10/25 10:57:48;;;;;;;5.07;3.10;;;;;;;16.99;75.60;101001.72;4923699;29;20446;-70
2022/10/25 11:00:25;;;;;;;4.20;2.37;;;;;;;17.05;75.06;100998.00;4930229;29;20426;-73
2022/10/25 11:02:56;;;;;;;4.40;2.87;;;;;;;17.18;74.24;100995.84;4928072;29;20467;-72
2022/10/25 11:05:27;;;;;;;6.40;3.27;;;;;;;17.29;74.30;100999.59;4930980;29;20657;-72
2022/10/25 11:07:58;;;;;;;8.73;2.20;;;;;;;17.61;72.48;100995.34;4936553;29;20440;-70
2022/10/25 11:10:32;;;;;;;4.23;2.17;;;;;;;17.70;72.60;100999.31;4936397;29;20433;-72
2022/10/25 11:13:19;;;;;;;9.30;2.90;;;;;;;17.76;71.33;100998.34;4929528;29;20432;-71
2022/10/25 11:16:23;;;;;;;5.23;2.93;;;;;;;17.78;71.48;101001.66;4928771;29;20451;-71
2022/10/25 11:19:14;;;;;;;13.13;2.77;;;;;;;17.75;71.00;101001.31;4929632;29;20439;-71
2022/10/25 11:22:17;;;;;;;8.20;3.47;;;;;;;17.99;70.33;101000.09;4931056;29;20538;-71
2022/10/25 11:24:59;;;;;;;7.37;4.07;;;;;;;18.28;69.38;101000.00;4925162;29;20518;-72
2022/10/25 11:27:38;;;;;;;4.83;2.50;;;;;;;18.26;67.92;101002.97;4934014;29;20439;-72
2022/10/25 11:30:13;;;;;;;4.47;2.93;;;;;;;18.13;68.97;101003.31;4935014;29;20445;-72
2022/10/25 11:33:09;;;;;;;3.57;2.43;;;;;;;17.88;69.25;101009.22;4929892;29;20415;-73
2022/10/25 11:35:53;;;;;;;3.63;1.97;;;;;;;17.74;69.27;101016.91;4920078;29;20478;-71
2022/10/25 11:38:35;;;;;;;6.00;2.90;;;;;;;17.64;69.49;101005.78;4929712;29;20491;-72
2022/10/25 11:41:13;;;;;;;6.20;2.77;;;;;;;17.64;69.69;101015.88;4936231;29;20444;-72
2022/10/25 11:43:58;;;;;;;6.50;2.53;;;;;;;17.35;70.40;101013.13;4924830;29;20408;-71
2022/10/25 11:46:34;;;;;;;7.20;4.37;;;;;;;17.37;70.95;101011.00;4930550;29;20456;-71
2022/10/25 11:49:17;;;;;;;5.60;2.43;;;;;;;17.31;70.73;101005.66;4932980;29;20410;-71
2022/10/25 11:51:57;;;;;;;5.40;2.77;;;;;;;17.29;71.51;101013.25;4928348;29;20439;-72